Terminal Aerodrome Forecast
Issued by NWS North Platte, NE

Home | Current Version | Previous Version | Text Only | Print | Product List | Glossary On
Versions: 1 2 3 4 5 6 7 8 9 10 11 12
000
FTUS43 KLBF 111135
TAFLBF
TAF
KLBF 111135Z 1112/1212 30011KT P6SM BKN250
     FM111600 31016G24KT P6SM SCT250
     FM111800 33026G35KT P6SM SCT200
     FM120100 34013G19KT P6SM FEW250
     FM120300 33009KT P6SM FEW250
     FM120800 30006KT P6SM FEW200=

USA.gov is the U.S. government's official web portal to all federal, state and local government web resources and services.